sensor_id;sensor_type;location;lat;lon;timestamp;temperature;humidity
19044;DHT22;9654;52.302;8.120;2022-07-17T00:00:04;11.90;99.90
19044;DHT22;9654;52.302;8.120;2022-07-17T00:02:31;11.90;99.90
19044;DHT22;9654;52.302;8.120;2022-07-17T00:04:59;11.80;99.90
19044;DHT22;9654;52.302;8.120;2022-07-17T00:07:26;11.80;99.90
19044;DHT22;9654;52.302;8.120;2022-07-17T00:09:52;11.70;99.90
19044;DHT22;9654;52.302;8.120;2022-07-17T00:12:20;11.70;99.90
19044;DHT22;9654;52.302;8.120;2022-07-17T00:14:46;11.60;99.90
19044;DHT22;9654;52.302;8.120;2022-07-17T00:17:13;11.60;99.90
19044;DHT22;9654;52.302;8.120;2022-07-17T00:19:41;11.50;99.90
19044;DHT22;9654;52.302;8.120;2022-07-17T00:22:09;11.40;99.90
19044;DHT22;9654;52.302;8.120;2022-07-17T00:24:36;11.40;99.90
19044;DHT22;9654;52.302;8.120;2022-07-17T00:27:03;11.30;99.90
19044;DHT22;9654;52.302;8.120;2022-07-17T00:29:29;11.30;99.90
19044;DHT22;9654;52.302;8.120;2022-07-17T00:31:56;11.20;99.90
19044;DHT22;9654;52.302;8.120;2022-07-17T00:34:23;11.10;99.90
19044;DHT22;9654;52.302;8.120;2022-07-17T00:36:50;11.10;99.90
19044;DHT22;9654;52.302;8.120;2022-07-17T00:39:18;11.10;99.90
19044;DHT22;9654;52.302;8.120;2022-07-17T00:41:45;11.10;99.90
19044;DHT22;9654;52.302;8.120;2022-07-17T00:44:12;11.10;99.90
19044;DHT22;9654;52.302;8.120;2022-07-17T00:46:39;11.00;99.90
19044;DHT22;9654;52.302;8.120;2022-07-17T00:49:06;11.00;99.90
19044;DHT22;9654;52.302;8.120;2022-07-17T00:51:33;11.00;99.90
19044;DHT22;9654;52.302;8.120;2022-07-17T00:54:02;11.00;99.90
19044;DHT22;9654;52.302;8.120;2022-07-17T00:56:31;10.90;99.90
19044;DHT22;9654;52.302;8.120;2022-07-17T00:59:00;10.90;99.90
19044;DHT22;9654;52.302;8.120;2022-07-17T01:01:29;10.90;99.90
19044;DHT22;9654;52.302;8.120;2022-07-17T01:03:56;10.90;99.90
19044;DHT22;9654;52.302;8.120;2022-07-17T01:06:23;10.80;99.90
19044;DHT22;9654;52.302;8.120;2022-07-17T01:08:49;10.80;99.90
19044;DHT22;9654;52.302;8.120;2022-07-17T01:11:16;10.80;99.90
19044;DHT22;9654;52.302;8.120;2022-07-17T01:13:44;10.70;99.90
19044;DHT22;9654;52.302;8.120;2022-07-17T01:16:11;10.70;99.90
19044;DHT22;9654;52.302;8.120;2022-07-17T01:18:38;10.70;99.90
19044;DHT22;9654;52.302;8.120;2022-07-17T01:21:07;10.70;99.90
19044;DHT22;9654;52.302;8.120;2022-07-17T01:23:34;10.70;99.90
19044;DHT22;9654;52.302;8.120;2022-07-17T01:26:01;10.60;99.90
19044;DHT22;9654;52.302;8.120;2022-07-17T01:28:28;10.60;99.90
19044;DHT22;9654;52.302;8.120;2022-07-17T01:30:56;10.60;99.90
19044;DHT22;9654;52.302;8.120;2022-07-17T01:33:23;10.60;99.90
19044;DHT22;9654;52.302;8.120;2022-07-17T01:35:49;10.50;99.90
19044;DHT22;9654;52.302;8.120;2022-07-17T01:38:18;10.40;99.90
19044;DHT22;9654;52.302;8.120;2022-07-17T01:40:44;10.40;99.90
19044;DHT22;9654;52.302;8.120;2022-07-17T01:43:11;10.30;99.90
19044;DHT22;9654;52.302;8.120;2022-07-17T01:45:38;10.30;99.90
19044;DHT22;9654;52.302;8.120;2022-07-17T01:48:05;10.20;99.90
19044;DHT22;9654;52.302;8.120;2022-07-17T01:50:32;10.20;99.90
19044;DHT22;9654;52.302;8.120;2022-07-17T01:52:59;10.20;99.90
19044;DHT22;9654;52.302;8.120;2022-07-17T01:55:27;10.10;99.90
19044;DHT22;9654;52.302;8.120;2022-07-17T01:57:54;10.00;99.90
19044;DHT22;9654;52.302;8.120;2022-07-17T02:00:20;10.00;99.90
19044;DHT22;9654;52.302;8.120;2022-07-17T02:02:49;10.00;99.90
19044;DHT22;9654;52.302;8.120;2022-07-17T02:05:16;10.00;99.90
19044;DHT22;9654;52.302;8.120;2022-07-17T02:07:43;9.90;99.90
19044;DHT22;9654;52.302;8.120;2022-07-17T02:10:10;10.00;99.90
19044;DHT22;9654;52.302;8.120;2022-07-17T02:12:40;9.90;99.90
19044;DHT22;9654;52.302;8.120;2022-07-17T02:15:08;9.90;99.90
19044;DHT22;9654;52.302;8.120;2022-07-17T02:17:34;9.90;99.90
19044;DHT22;9654;52.302;8.120;2022-07-17T02:20:01;9.90;99.90
19044;DHT22;9654;52.302;8.120;2022-07-17T02:22:29;9.80;99.90
19044;DHT22;9654;52.302;8.120;2022-07-17T02:24:55;9.70;99.90
19044;DHT22;9654;52.302;8.120;2022-07-17T02:27:22;9.70;99.90
19044;DHT22;9654;52.302;8.120;2022-07-17T02:29:50;9.70;99.90
19044;DHT22;9654;52.302;8.120;2022-07-17T02:32:17;9.70;99.90
19044;DHT22;9654;52.302;8.120;2022-07-17T02:34:44;9.70;99.90
19044;DHT22;9654;52.302;8.120;2022-07-17T02:37:12;9.70;99.90
19044;DHT22;9654;52.302;8.120;2022-07-17T02:39:39;9.70;99.90
19044;DHT22;9654;52.302;8.120;2022-07-17T02:42:18;9.60;99.90
19044;DHT22;9654;52.302;8.120;2022-07-17T02:44:46;9.60;99.90
19044;DHT22;9654;52.302;8.120;2022-07-17T02:47:20;9.60;99.90
19044;DHT22;9654;52.302;8.120;2022-07-17T02:49:48;9.60;99.90
19044;DHT22;9654;52.302;8.120;2022-07-17T02:52:15;9.60;99.90
19044;DHT22;9654;52.302;8.120;2022-07-17T02:54:41;9.60;99.90
19044;DHT22;9654;52.302;8.120;2022-07-17T02:57:08;9.60;99.90
19044;DHT22;9654;52.302;8.120;2022-07-17T02:59:35;9.60;99.90
19044;DHT22;9654;52.302;8.120;2022-07-17T03:02:02;9.60;99.90
19044;DHT22;9654;52.302;8.120;2022-07-17T03:04:30;9.50;99.90
19044;DHT22;9654;52.302;8.120;2022-07-17T03:06:57;9.50;99.90
19044;DHT22;9654;52.302;8.120;2022-07-17T03:09:24;9.50;99.90
19044;DHT22;9654;52.302;8.120;2022-07-17T03:11:51;9.40;99.90
19044;DHT22;9654;52.302;8.120;2022-07-17T03:14:18;9.50;99.90
19044;DHT22;9654;52.302;8.120;2022-07-17T03:16:45;9.50;99.90
19044;DHT22;9654;52.302;8.120;2022-07-17T03:19:12;9.50;99.90
19044;DHT22;9654;52.302;8.120;2022-07-17T03:21:40;9.40;99.90
19044;DHT22;9654;52.302;8.120;2022-07-17T03:24:06;9.40;99.90
19044;DHT22;9654;52.302;8.120;2022-07-17T03:26:33;9.30;99.90
19044;DHT22;9654;52.302;8.120;2022-07-17T03:29:00;9.30;99.90
19044;DHT22;9654;52.302;8.120;2022-07-17T03:31:26;9.20;99.90
19044;DHT22;9654;52.302;8.120;2022-07-17T03:33:53;9.20;99.90
19044;DHT22;9654;52.302;8.120;2022-07-17T03:36:20;9.20;99.90
19044;DHT22;9654;52.302;8.120;2022-07-17T03:38:48;9.20;99.90
19044;DHT22;9654;52.302;8.120;2022-07-17T03:41:15;9.10;99.90
19044;DHT22;9654;52.302;8.120;2022-07-17T03:43:41;9.10;99.90
19044;DHT22;9654;52.302;8.120;2022-07-17T03:46:08;9.10;99.90
19044;DHT22;9654;52.302;8.120;2022-07-17T03:48:35;9.10;99.90
19044;DHT22;9654;52.302;8.120;2022-07-17T03:51:03;9.10;99.90
19044;DHT22;9654;52.302;8.120;2022-07-17T03:53:29;9.10;99.90
19044;DHT22;9654;52.302;8.120;2022-07-17T03:55:57;9.10;99.90
19044;DHT22;9654;52.302;8.120;2022-07-17T03:58:24;9.20;99.90
19044;DHT22;9654;52.302;8.120;2022-07-17T04:00:51;9.20;99.90
19044;DHT22;9654;52.302;8.120;2022-07-17T04:03:18;9.20;99.90
19044;DHT22;9654;52.302;8.120;2022-07-17T04:05:45;9.20;99.90
19044;DHT22;9654;52.302;8.120;2022-07-17T04:08:12;9.20;99.90
19044;DHT22;9654;52.302;8.120;2022-07-17T04:10:39;9.20;99.90
19044;DHT22;9654;52.302;8.120;2022-07-17T04:13:07;9.20;99.90
19044;DHT22;9654;52.302;8.120;2022-07-17T04:15:34;9.20;99.90
19044;DHT22;9654;52.302;8.120;2022-07-17T04:18:18;9.20;99.90
19044;DHT22;9654;52.302;8.120;2022-07-17T04:20:46;9.20;99.90
19044;DHT22;9654;52.302;8.120;2022-07-17T04:23:13;9.30;99.90
19044;DHT22;9654;52.302;8.120;2022-07-17T04:25:40;9.30;99.90
19044;DHT22;9654;52.302;8.120;2022-07-17T04:28:08;9.50;99.90
19044;DHT22;9654;52.302;8.120;2022-07-17T04:30:35;9.50;99.90
19044;DHT22;9654;52.302;8.120;2022-07-17T04:33:02;9.40;99.90
19044;DHT22;9654;52.302;8.120;2022-07-17T04:35:29;9.40;99.90
19044;DHT22;9654;52.302;8.120;2022-07-17T04:37:56;9.40;99.90
19044;DHT22;9654;52.302;8.120;2022-07-17T04:40:23;9.50;99.90
19044;DHT22;9654;52.302;8.120;2022-07-17T04:42:50;9.50;99.90
19044;DHT22;9654;52.302;8.120;2022-07-17T04:45:18;9.60;99.90
19044;DHT22;9654;52.302;8.120;2022-07-17T04:47:45;9.70;99.90
19044;DHT22;9654;52.302;8.120;2022-07-17T04:50:12;9.80;99.90
19044;DHT22;9654;52.302;8.120;2022-07-17T04:52:38;9.80;99.90
19044;DHT22;9654;52.302;8.120;2022-07-17T04:55:06;10.00;99.90
19044;DHT22;9654;52.302;8.120;2022-07-17T04:57:33;10.10;99.90
19044;DHT22;9654;52.302;8.120;2022-07-17T04:59:59;10.20;99.90
19044;DHT22;9654;52.302;8.120;2022-07-17T05:02:27;10.30;99.90
19044;DHT22;9654;52.302;8.120;2022-07-17T05:04:54;10.50;99.90
19044;DHT22;9654;52.302;8.120;2022-07-17T05:07:21;10.60;99.90
19044;DHT22;9654;52.302;8.120;2022-07-17T05:09:49;10.70;99.90
19044;DHT22;9654;52.302;8.120;2022-07-17T05:12:15;10.80;99.90
19044;DHT22;9654;52.302;8.120;2022-07-17T05:14:42;11.00;99.90
19044;DHT22;9654;52.302;8.120;2022-07-17T05:17:09;11.10;99.90
19044;DHT22;9654;52.302;8.120;2022-07-17T05:19:37;11.10;99.90
19044;DHT22;9654;52.302;8.120;2022-07-17T05:22:04;11.20;99.90
19044;DHT22;9654;52.302;8.120;2022-07-17T05:24:31;11.10;99.90
19044;DHT22;9654;52.302;8.120;2022-07-17T05:26:59;11.20;99.90
19044;DHT22;9654;52.302;8.120;2022-07-17T05:29:26;11.20;99.90
19044;DHT22;9654;52.302;8.120;2022-07-17T05:31:52;11.20;99.90
19044;DHT22;9654;52.302;8.120;2022-07-17T05:34:19;11.20;99.90
19044;DHT22;9654;52.302;8.120;2022-07-17T05:36:47;11.20;99.90
19044;DHT22;9654;52.302;8.120;2022-07-17T05:39:14;11.20;99.90
19044;DHT22;9654;52.302;8.120;2022-07-17T05:41:41;11.20;99.90
19044;DHT22;9654;52.302;8.120;2022-07-17T05:44:08;11.20;99.90
19044;DHT22;9654;52.302;8.120;2022-07-17T05:46:36;11.30;99.90
19044;DHT22;9654;52.302;8.120;2022-07-17T05:49:02;11.30;99.90
19044;DHT22;9654;52.302;8.120;2022-07-17T05:51:29;11.30;99.90
19044;DHT22;9654;52.302;8.120;2022-07-17T05:53:57;11.40;99.90
19044;DHT22;9654;52.302;8.120;2022-07-17T05:56:24;11.50;99.90
19044;DHT22;9654;52.302;8.120;2022-07-17T05:58:51;11.60;99.90
19044;DHT22;9654;52.302;8.120;2022-07-17T06:01:17;11.70;99.90
19044;DHT22;9654;52.302;8.120;2022-07-17T06:03:44;11.80;99.90
19044;DHT22;9654;52.302;8.120;2022-07-17T06:06:11;11.90;99.90
19044;DHT22;9654;52.302;8.120;2022-07-17T06:08:38;12.00;99.90
19044;DHT22;9654;52.302;8.120;2022-07-17T06:11:06;12.10;99.90
19044;DHT22;9654;52.302;8.120;2022-07-17T06:13:33;12.30;99.90
19044;DHT22;9654;52.302;8.120;2022-07-17T06:16:00;12.50;99.90
19044;DHT22;9654;52.302;8.120;2022-07-17T06:18:26;12.70;99.90
19044;DHT22;9654;52.302;8.120;2022-07-17T06:20:53;12.90;99.90
19044;DHT22;9654;52.302;8.120;2022-07-17T06:23:20;13.10;99.90
19044;DHT22;9654;52.302;8.120;2022-07-17T06:25:47;13.30;99.90
19044;DHT22;9654;52.302;8.120;2022-07-17T06:28:15;13.50;99.90
19044;DHT22;9654;52.302;8.120;2022-07-17T06:30:42;13.70;99.90
19044;DHT22;9654;52.302;8.120;2022-07-17T06:33:09;14.00;99.90
19044;DHT22;9654;52.302;8.120;2022-07-17T06:35:36;14.20;99.90
19044;DHT22;9654;52.302;8.120;2022-07-17T06:38:03;14.40;99.90
19044;DHT22;9654;52.302;8.120;2022-07-17T06:40:30;14.60;99.90
19044;DHT22;9654;52.302;8.120;2022-07-17T06:42:57;14.90;99.90
19044;DHT22;9654;52.302;8.120;2022-07-17T06:45:25;15.10;99.90
19044;DHT22;9654;52.302;8.120;2022-07-17T06:47:51;15.30;99.90
19044;DHT22;9654;52.302;8.120;2022-07-17T06:50:18;15.50;99.90
19044;DHT22;9654;52.302;8.120;2022-07-17T06:52:45;15.70;99.90
19044;DHT22;9654;52.302;8.120;2022-07-17T06:55:11;15.90;99.90
19044;DHT22;9654;52.302;8.120;2022-07-17T06:57:38;16.10;99.90
19044;DHT22;9654;52.302;8.120;2022-07-17T07:00:06;16.30;99.90
19044;DHT22;9654;52.302;8.120;2022-07-17T07:02:35;16.40;99.90
19044;DHT22;9654;52.302;8.120;2022-07-17T07:05:02;16.70;99.90
19044;DHT22;9654;52.302;8.120;2022-07-17T07:07:29;16.90;99.90
19044;DHT22;9654;52.302;8.120;2022-07-17T07:09:56;17.00;99.90
19044;DHT22;9654;52.302;8.120;2022-07-17T07:12:23;17.20;99.90
19044;DHT22;9654;52.302;8.120;2022-07-17T07:14:50;17.30;99.90
19044;DHT22;9654;52.302;8.120;2022-07-17T07:17:16;17.20;99.90
19044;DHT22;9654;52.302;8.120;2022-07-17T07:19:44;17.30;99.90
19044;DHT22;9654;52.302;8.120;2022-07-17T07:22:11;17.50;99.90
19044;DHT22;9654;52.302;8.120;2022-07-17T07:24:38;17.40;99.90
19044;DHT22;9654;52.302;8.120;2022-07-17T07:27:05;17.50;99.90
19044;DHT22;9654;52.302;8.120;2022-07-17T07:29:31;17.50;99.90
19044;DHT22;9654;52.302;8.120;2022-07-17T07:31:58;17.40;99.90
19044;DHT22;9654;52.302;8.120;2022-07-17T07:34:25;17.50;99.90
19044;DHT22;9654;52.302;8.120;2022-07-17T07:36:53;17.50;99.90
19044;DHT22;9654;52.302;8.120;2022-07-17T07:39:20;17.70;99.90
19044;DHT22;9654;52.302;8.120;2022-07-17T07:41:47;17.70;99.90
19044;DHT22;9654;52.302;8.120;2022-07-17T07:44:13;17.90;99.90
19044;DHT22;9654;52.302;8.120;2022-07-17T07:46:40;18.20;99.90
19044;DHT22;9654;52.302;8.120;2022-07-17T07:49:07;18.20;99.90
19044;DHT22;9654;52.302;8.120;2022-07-17T07:51:34;18.20;99.90
19044;DHT22;9654;52.302;8.120;2022-07-17T07:54:02;18.20;99.90
19044;DHT22;9654;52.302;8.120;2022-07-17T07:56:29;18.30;99.90
19044;DHT22;9654;52.302;8.120;2022-07-17T07:58:55;18.30;99.90
19044;DHT22;9654;52.302;8.120;2022-07-17T08:01:22;18.40;99.90
19044;DHT22;9654;52.302;8.120;2022-07-17T08:03:49;18.60;99.90
19044;DHT22;9654;52.302;8.120;2022-07-17T08:06:16;18.90;99.90
19044;DHT22;9654;52.302;8.120;2022-07-17T08:08:43;19.10;99.90
19044;DHT22;9654;52.302;8.120;2022-07-17T08:11:11;19.20;99.90
19044;DHT22;9654;52.302;8.120;2022-07-17T08:13:39;19.20;99.90
19044;DHT22;9654;52.302;8.120;2022-07-17T08:16:07;19.20;99.90
19044;DHT22;9654;52.302;8.120;2022-07-17T08:18:34;19.20;99.90
19044;DHT22;9654;52.302;8.120;2022-07-17T08:21:00;19.20;99.90
19044;DHT22;9654;52.302;8.120;2022-07-17T08:23:27;19.20;99.90
19044;DHT22;9654;52.302;8.120;2022-07-17T08:25:54;19.20;99.90
19044;DHT22;9654;52.302;8.120;2022-07-17T08:28:22;19.30;99.90
19044;DHT22;9654;52.302;8.120;2022-07-17T08:30:49;19.50;99.90
19044;DHT22;9654;52.302;8.120;2022-07-17T08:33:16;19.70;99.90
19044;DHT22;9654;52.302;8.120;2022-07-17T08:35:43;19.70;99.90
19044;DHT22;9654;52.302;8.120;2022-07-17T08:38:10;19.70;99.90
19044;DHT22;9654;52.302;8.120;2022-07-17T08:40:38;20.00;99.90
19044;DHT22;9654;52.302;8.120;2022-07-17T08:43:07;20.10;99.90
19044;DHT22;9654;52.302;8.120;2022-07-17T08:45:35;20.00;99.90
19044;DHT22;9654;52.302;8.120;2022-07-17T08:48:05;19.90;99.90
19044;DHT22;9654;52.302;8.120;2022-07-17T08:50:35;20.10;99.90
19044;DHT22;9654;52.302;8.120;2022-07-17T08:53:02;20.00;99.90
19044;DHT22;9654;52.302;8.120;2022-07-17T08:55:29;20.00;99.90
19044;DHT22;9654;52.302;8.120;2022-07-17T08:57:56;20.00;99.90
19044;DHT22;9654;52.302;8.120;2022-07-17T09:00:24;20.10;99.90
19044;DHT22;9654;52.302;8.120;2022-07-17T09:02:58;20.20;99.90
19044;DHT22;9654;52.302;8.120;2022-07-17T09:05:26;20.40;99.90
19044;DHT22;9654;52.302;8.120;2022-07-17T09:07:54;20.40;99.90
19044;DHT22;9654;52.302;8.120;2022-07-17T09:10:34;20.50;99.90
19044;DHT22;9654;52.302;8.120;2022-07-17T09:13:01;20.50;99.90
19044;DHT22;9654;52.302;8.120;2022-07-17T09:15:28;20.70;99.90
19044;DHT22;9654;52.302;8.120;2022-07-17T09:17:56;20.80;99.90
19044;DHT22;9654;52.302;8.120;2022-07-17T09:20:23;21.20;99.90
19044;DHT22;9654;52.302;8.120;2022-07-17T09:22:58;21.40;99.90
19044;DHT22;9654;52.302;8.120;2022-07-17T09:25:35;21.60;99.90
19044;DHT22;9654;52.302;8.120;2022-07-17T09:28:04;21.40;99.90
19044;DHT22;9654;52.302;8.120;2022-07-17T09:30:31;21.30;99.90
19044;DHT22;9654;52.302;8.120;2022-07-17T09:32:59;21.20;99.90
19044;DHT22;9654;52.302;8.120;2022-07-17T09:35:26;21.20;99.90
19044;DHT22;9654;52.302;8.120;2022-07-17T09:37:54;21.30;99.90
19044;DHT22;9654;52.302;8.120;2022-07-17T09:40:21;21.20;99.90
19044;DHT22;9654;52.302;8.120;2022-07-17T09:43:06;21.20;99.90
19044;DHT22;9654;52.302;8.120;2022-07-17T09:45:34;21.30;99.90
19044;DHT22;9654;52.302;8.120;2022-07-17T09:48:03;21.40;99.90
19044;DHT22;9654;52.302;8.120;2022-07-17T09:50:31;21.40;99.90
19044;DHT22;9654;52.302;8.120;2022-07-17T09:52:58;21.40;99.90
19044;DHT22;9654;52.302;8.120;2022-07-17T09:55:29;21.40;99.90
19044;DHT22;9654;52.302;8.120;2022-07-17T09:57:59;21.40;99.90
19044;DHT22;9654;52.302;8.120;2022-07-17T10:00:27;21.60;99.90
19044;DHT22;9654;52.302;8.120;2022-07-17T10:02:54;21.60;99.90
19044;DHT22;9654;52.302;8.120;2022-07-17T10:05:22;21.50;99.90
19044;DHT22;9654;52.302;8.120;2022-07-17T10:07:50;21.70;99.90
19044;DHT22;9654;52.302;8.120;2022-07-17T10:10:17;22.00;99.90
19044;DHT22;9654;52.302;8.120;2022-07-17T10:12:46;22.30;99.90
19044;DHT22;9654;52.302;8.120;2022-07-17T10:15:15;22.40;99.90
19044;DHT22;9654;52.302;8.120;2022-07-17T10:17:41;22.60;99.90
19044;DHT22;9654;52.302;8.120;2022-07-17T10:20:09;22.80;99.90
19044;DHT22;9654;52.302;8.120;2022-07-17T10:22:46;22.80;99.90
19044;DHT22;9654;52.302;8.120;2022-07-17T10:25:14;22.80;99.90
19044;DHT22;9654;52.302;8.120;2022-07-17T10:27:49;22.90;99.90
19044;DHT22;9654;52.302;8.120;2022-07-17T10:30:23;23.00;99.90
19044;DHT22;9654;52.302;8.120;2022-07-17T10:32:55;23.10;99.90
19044;DHT22;9654;52.302;8.120;2022-07-17T10:35:24;23.10;99.90
19044;DHT22;9654;52.302;8.120;2022-07-17T10:37:52;23.00;99.90
19044;DHT22;9654;52.302;8.120;2022-07-17T10:40:21;23.10;99.90
19044;DHT22;9654;52.302;8.120;2022-07-17T10:42:57;23.20;99.90
19044;DHT22;9654;52.302;8.120;2022-07-17T10:45:29;23.40;99.80
19044;DHT22;9654;52.302;8.120;2022-07-17T10:48:01;23.60;99.80
19044;DHT22;9654;52.302;8.120;2022-07-17T10:50:29;23.60;99.50
19044;DHT22;9654;52.302;8.120;2022-07-17T10:53:08;24.00;99.20
19044;DHT22;9654;52.302;8.120;2022-07-17T10:55:36;24.10;98.30
19044;DHT22;9654;52.302;8.120;2022-07-17T10:58:03;24.30;97.60
19044;DHT22;9654;52.302;8.120;2022-07-17T11:00:30;24.30;96.90
19044;DHT22;9654;52.302;8.120;2022-07-17T11:03:08;24.30;97.40
19044;DHT22;9654;52.302;8.120;2022-07-17T11:05:35;24.00;97.90
19044;DHT22;9654;52.302;8.120;2022-07-17T11:08:03;24.00;98.50
19044;DHT22;9654;52.302;8.120;2022-07-17T11:10:35;24.00;97.70
19044;DHT22;9654;52.302;8.120;2022-07-17T11:13:08;24.10;97.20
19044;DHT22;9654;52.302;8.120;2022-07-17T11:15:41;24.40;97.00
19044;DHT22;9654;52.302;8.120;2022-07-17T11:18:13;24.50;95.60
19044;DHT22;9654;52.302;8.120;2022-07-17T11:20:52;24.50;96.00
19044;DHT22;9654;52.302;8.120;2022-07-17T11:23:22;24.60;95.60
19044;DHT22;9654;52.302;8.120;2022-07-17T11:25:58;24.80;95.30
19044;DHT22;9654;52.302;8.120;2022-07-17T11:28:36;24.90;95.20
19044;DHT22;9654;52.302;8.120;2022-07-17T11:31:14;24.90;95.20
19044;DHT22;9654;52.302;8.120;2022-07-17T11:33:46;25.20;94.40
19044;DHT22;9654;52.302;8.120;2022-07-17T11:36:22;25.40;94.30
19044;DHT22;9654;52.302;8.120;2022-07-17T11:38:52;25.30;94.10
19044;DHT22;9654;52.302;8.120;2022-07-17T11:41:18;25.30;94.20
19044;DHT22;9654;52.302;8.120;2022-07-17T11:43:46;25.60;94.20
19044;DHT22;9654;52.302;8.120;2022-07-17T11:46:14;25.40;94.20
19044;DHT22;9654;52.302;8.120;2022-07-17T11:48:42;25.60;94.10
19044;DHT22;9654;52.302;8.120;2022-07-17T11:51:09;25.90;93.10
19044;DHT22;9654;52.302;8.120;2022-07-17T11:53:37;26.10;93.00
19044;DHT22;9654;52.302;8.120;2022-07-17T11:56:06;26.30;92.10
19044;DHT22;9654;52.302;8.120;2022-07-17T11:58:44;26.50;91.50
19044;DHT22;9654;52.302;8.120;2022-07-17T12:01:11;26.50;91.50
19044;DHT22;9654;52.302;8.120;2022-07-17T12:03:38;26.50;91.00
19044;DHT22;9654;52.302;8.120;2022-07-17T12:06:05;26.40;91.60
19044;DHT22;9654;52.302;8.120;2022-07-17T12:08:32;26.50;91.30
19044;DHT22;9654;52.302;8.120;2022-07-17T12:11:01;26.50;91.50
19044;DHT22;9654;52.302;8.120;2022-07-17T12:13:47;26.70;91.00
19044;DHT22;9654;52.302;8.120;2022-07-17T12:16:26;26.70;91.10
19044;DHT22;9654;52.302;8.120;2022-07-17T12:19:02;26.70;90.80
19044;DHT22;9654;52.302;8.120;2022-07-17T12:21:32;26.80;90.90
19044;DHT22;9654;52.302;8.120;2022-07-17T12:24:01;26.90;90.20
19044;DHT22;9654;52.302;8.120;2022-07-17T12:26:29;26.70;90.80
19044;DHT22;9654;52.302;8.120;2022-07-17T12:28:58;26.80;90.10
19044;DHT22;9654;52.302;8.120;2022-07-17T12:31:25;26.90;89.70
19044;DHT22;9654;52.302;8.120;2022-07-17T12:33:52;26.90;83.20
19044;DHT22;9654;52.302;8.120;2022-07-17T12:36:20;27.10;83.40
19044;DHT22;9654;52.302;8.120;2022-07-17T12:38:48;27.10;84.50
19044;DHT22;9654;52.302;8.120;2022-07-17T12:41:14;27.10;84.10
19044;DHT22;9654;52.302;8.120;2022-07-17T12:43:41;27.20;83.30
19044;DHT22;9654;52.302;8.120;2022-07-17T12:46:10;27.10;82.90
19044;DHT22;9654;52.302;8.120;2022-07-17T12:48:37;26.70;84.00
19044;DHT22;9654;52.302;8.120;2022-07-17T12:51:07;26.20;83.60
19044;DHT22;9654;52.302;8.120;2022-07-17T12:53:34;26.10;83.50
19044;DHT22;9654;52.302;8.120;2022-07-17T12:56:02;26.40;83.20
19044;DHT22;9654;52.302;8.120;2022-07-17T12:58:29;26.40;83.40
19044;DHT22;9654;52.302;8.120;2022-07-17T13:00:55;26.50;83.10
19044;DHT22;9654;52.302;8.120;2022-07-17T13:03:24;26.40;82.50
19044;DHT22;9654;52.302;8.120;2022-07-17T13:05:50;26.70;82.10
19044;DHT22;9654;52.302;8.120;2022-07-17T13:08:18;26.80;81.50
19044;DHT22;9654;52.302;8.120;2022-07-17T13:10:45;26.90;82.00
19044;DHT22;9654;52.302;8.120;2022-07-17T13:13:11;26.80;80.80
19044;DHT22;9654;52.302;8.120;2022-07-17T13:15:38;27.10;80.20
19044;DHT22;9654;52.302;8.120;2022-07-17T13:18:06;27.50;80.00
19044;DHT22;9654;52.302;8.120;2022-07-17T13:20:34;28.00;79.50
19044;DHT22;9654;52.302;8.120;2022-07-17T13:23:01;27.80;79.00
19044;DHT22;9654;52.302;8.120;2022-07-17T13:25:27;27.70;79.90
19044;DHT22;9654;52.302;8.120;2022-07-17T13:27:54;27.70;80.50
19044;DHT22;9654;52.302;8.120;2022-07-17T13:30:21;27.90;79.20
19044;DHT22;9654;52.302;8.120;2022-07-17T13:32:48;28.00;78.30
19044;DHT22;9654;52.302;8.120;2022-07-17T13:35:15;28.00;77.20
19044;DHT22;9654;52.302;8.120;2022-07-17T13:37:45;27.80;76.90
19044;DHT22;9654;52.302;8.120;2022-07-17T13:40:12;27.90;77.10
19044;DHT22;9654;52.302;8.120;2022-07-17T13:42:38;28.10;76.20
19044;DHT22;9654;52.302;8.120;2022-07-17T13:45:06;28.10;76.00
19044;DHT22;9654;52.302;8.120;2022-07-17T13:47:33;28.50;76.30
19044;DHT22;9654;52.302;8.120;2022-07-17T13:50:00;28.80;76.00
19044;DHT22;9654;52.302;8.120;2022-07-17T13:52:27;28.80;74.50
19044;DHT22;9654;52.302;8.120;2022-07-17T13:54:55;28.70;75.20
19044;DHT22;9654;52.302;8.120;2022-07-17T13:57:22;28.90;74.40
19044;DHT22;9654;52.302;8.120;2022-07-17T13:59:49;28.90;73.50
19044;DHT22;9654;52.302;8.120;2022-07-17T14:02:16;29.00;73.60
19044;DHT22;9654;52.302;8.120;2022-07-17T14:04:43;29.20;74.70
19044;DHT22;9654;52.302;8.120;2022-07-17T14:07:10;29.10;73.50
19044;DHT22;9654;52.302;8.120;2022-07-17T14:09:36;29.20;74.80
19044;DHT22;9654;52.302;8.120;2022-07-17T14:12:05;29.30;73.20
19044;DHT22;9654;52.302;8.120;2022-07-17T14:14:32;29.40;72.50
19044;DHT22;9654;52.302;8.120;2022-07-17T14:16:59;29.30;73.00
19044;DHT22;9654;52.302;8.120;2022-07-17T14:19:25;29.20;73.20
19044;DHT22;9654;52.302;8.120;2022-07-17T14:21:52;28.80;73.30
19044;DHT22;9654;52.302;8.120;2022-07-17T14:24:19;28.80;73.70
19044;DHT22;9654;52.302;8.120;2022-07-17T14:26:46;29.00;73.20
19044;DHT22;9654;52.302;8.120;2022-07-17T14:29:15;29.20;73.10
19044;DHT22;9654;52.302;8.120;2022-07-17T14:31:41;29.40;70.80
19044;DHT22;9654;52.302;8.120;2022-07-17T14:34:08;29.70;70.30
19044;DHT22;9654;52.302;8.120;2022-07-17T14:36:35;29.40;70.00
19044;DHT22;9654;52.302;8.120;2022-07-17T14:39:02;29.80;70.10
19044;DHT22;9654;52.302;8.120;2022-07-17T14:41:28;30.10;69.80
19044;DHT22;9654;52.302;8.120;2022-07-17T14:43:55;30.00;67.60
19044;DHT22;9654;52.302;8.120;2022-07-17T14:46:24;29.80;67.40
19044;DHT22;9654;52.302;8.120;2022-07-17T14:48:51;30.00;68.60
19044;DHT22;9654;52.302;8.120;2022-07-17T14:51:18;29.90;68.90
19044;DHT22;9654;52.302;8.120;2022-07-17T14:53:44;29.90;68.00
19044;DHT22;9654;52.302;8.120;2022-07-17T14:56:11;29.90;68.10
19044;DHT22;9654;52.302;8.120;2022-07-17T14:58:38;30.10;68.10
19044;DHT22;9654;52.302;8.120;2022-07-17T15:01:05;30.20;67.40
19044;DHT22;9654;52.302;8.120;2022-07-17T15:03:34;30.00;66.90
19044;DHT22;9654;52.302;8.120;2022-07-17T15:06:00;30.00;67.10
19044;DHT22;9654;52.302;8.120;2022-07-17T15:08:27;30.10;68.30
19044;DHT22;9654;52.302;8.120;2022-07-17T15:10:54;30.00;69.10
19044;DHT22;9654;52.302;8.120;2022-07-17T15:13:22;29.70;69.50
19044;DHT22;9654;52.302;8.120;2022-07-17T15:15:49;29.30;69.20
19044;DHT22;9654;52.302;8.120;2022-07-17T15:18:15;29.00;70.20
19044;DHT22;9654;52.302;8.120;2022-07-17T15:20:44;29.10;70.50
19044;DHT22;9654;52.302;8.120;2022-07-17T15:23:10;29.20;70.20
19044;DHT22;9654;52.302;8.120;2022-07-17T15:25:37;29.30;70.80
19044;DHT22;9654;52.302;8.120;2022-07-17T15:28:04;29.50;70.90
19044;DHT22;9654;52.302;8.120;2022-07-17T15:30:31;29.70;72.10
19044;DHT22;9654;52.302;8.120;2022-07-17T15:32:59;29.80;70.20
19044;DHT22;9654;52.302;8.120;2022-07-17T15:35:25;29.70;70.40
19044;DHT22;9654;52.302;8.120;2022-07-17T15:37:54;29.70;70.20
19044;DHT22;9654;52.302;8.120;2022-07-17T15:40:21;29.50;70.40
19044;DHT22;9654;52.302;8.120;2022-07-17T15:42:49;29.30;71.70
19044;DHT22;9654;52.302;8.120;2022-07-17T15:45:16;29.10;72.00
19044;DHT22;9654;52.302;8.120;2022-07-17T15:47:44;28.90;71.70
19044;DHT22;9654;52.302;8.120;2022-07-17T15:50:11;28.90;72.40
19044;DHT22;9654;52.302;8.120;2022-07-17T15:52:38;28.80;71.00